Terminal Aerodrome Forecast
Issued by NWS Cleveland, OH

Home | Current Version | Previous Version | Graphics & Text | Print | Product List | Glossary On
Versions: 1 2 3 4 5 6 7 8 9 10 11 12 13 14 15 16 17 18 19 20 21 22 23 24 25 26
000
FTUS41 KCLE 251500 AAC
TAFYNG
TAF AMD
KYNG 251507Z 2515/2612 03010KT 6SM -SN BR OVC015
      TEMPO 2515/2517 5SM -FZDZSN OVC008
     FM251700 04012KT 2SM -SN BR OVC006
     FM252100 04012KT 1SM -SN OVC004=

USA.gov is the U.S. government's official web portal to all federal, state and local government web resources and services.